sensor_id;sensor_type;location;lat;lon;timestamp;pressure;altitude;pressure_sealevel;temperature;humidity
70127;BME280;57491;42.694;23.314;2022-12-07T00:00:18;95124.09;;;8.80;67.86
70127;BME280;57491;42.694;23.314;2022-12-07T00:02:45;95121.50;;;8.80;67.48
70127;BME280;57491;42.694;23.314;2022-12-07T00:05:12;95121.50;;;8.80;66.65
70127;BME280;57491;42.694;23.314;2022-12-07T00:07:39;95133.00;;;8.86;66.57
70127;BME280;57491;42.694;23.314;2022-12-07T00:10:09;95111.03;;;8.58;66.86
70127;BME280;57491;42.694;23.314;2022-12-07T00:12:36;95118.81;;;8.58;67.40
70127;BME280;57491;42.694;23.314;2022-12-07T00:15:04;95124.66;;;8.60;66.05
70127;BME280;57491;42.694;23.314;2022-12-07T00:17:31;95120.44;;;8.42;67.10
70127;BME280;57491;42.694;23.314;2022-12-07T00:19:59;95107.34;;;8.12;67.17
70127;BME280;57491;42.694;23.314;2022-12-07T00:22:26;95115.75;;;8.22;68.76
70127;BME280;57491;42.694;23.314;2022-12-07T00:24:53;95133.09;;;8.29;68.75
70127;BME280;57491;42.694;23.314;2022-12-07T00:27:21;95122.06;;;8.19;68.63
70127;BME280;57491;42.694;23.314;2022-12-07T00:29:48;95125.16;;;8.31;68.52
70127;BME280;57491;42.694;23.314;2022-12-07T00:32:15;95125.63;;;8.10;67.54
70127;BME280;57491;42.694;23.314;2022-12-07T00:34:43;95129.34;;;8.16;68.04
70127;BME280;57491;42.694;23.314;2022-12-07T00:37:10;95115.25;;;8.02;68.37
70127;BME280;57491;42.694;23.314;2022-12-07T00:39:38;95116.88;;;8.03;68.09
70127;BME280;57491;42.694;23.314;2022-12-07T00:42:05;95124.16;;;8.07;68.96
70127;BME280;57491;42.694;23.314;2022-12-07T00:44:34;95120.13;;;8.05;69.09
70127;BME280;57491;42.694;23.314;2022-12-07T00:47:01;95111.06;;;8.09;68.03
70127;BME280;57491;42.694;23.314;2022-12-07T00:49:28;95115.09;;;8.20;68.15
70127;BME280;57491;42.694;23.314;2022-12-07T00:51:55;95122.72;;;8.13;67.67
70127;BME280;57491;42.694;23.314;2022-12-07T00:54:22;95117.53;;;8.13;68.49
70127;BME280;57491;42.694;23.314;2022-12-07T00:56:49;95100.53;;;8.19;69.15
70127;BME280;57491;42.694;23.314;2022-12-07T00:59:16;95117.25;;;8.32;68.19
70127;BME280;57491;42.694;23.314;2022-12-07T01:01:45;95108.47;;;8.25;68.24
70127;BME280;57491;42.694;23.314;2022-12-07T01:04:12;95116.91;;;8.35;67.39
70127;BME280;57491;42.694;23.314;2022-12-07T01:06:39;95114.63;;;8.40;67.70
70127;BME280;57491;42.694;23.314;2022-12-07T01:09:07;95112.50;;;8.44;67.97
70127;BME280;57491;42.694;23.314;2022-12-07T01:11:34;95090.66;;;8.38;67.78
70127;BME280;57491;42.694;23.314;2022-12-07T01:14:01;95117.84;;;8.59;68.61
70127;BME280;57491;42.694;23.314;2022-12-07T01:16:29;95108.28;;;8.59;67.39
70127;BME280;57491;42.694;23.314;2022-12-07T01:18:59;95108.75;;;8.63;68.11
70127;BME280;57491;42.694;23.314;2022-12-07T01:21:28;95088.50;;;8.66;68.42
70127;BME280;57491;42.694;23.314;2022-12-07T01:23:57;95098.66;;;8.76;67.97
70127;BME280;57491;42.694;23.314;2022-12-07T01:26:25;95094.28;;;8.76;67.13
70127;BME280;57491;42.694;23.314;2022-12-07T01:28:52;95095.72;;;8.79;67.65
70127;BME280;57491;42.694;23.314;2022-12-07T01:31:22;95080.22;;;8.71;67.51
70127;BME280;57491;42.694;23.314;2022-12-07T01:33:52;95100.91;;;8.87;67.66
70127;BME280;57491;42.694;23.314;2022-12-07T01:36:22;95102.69;;;8.86;67.87
70127;BME280;57491;42.694;23.314;2022-12-07T01:38:52;95091.97;;;8.89;67.86
70127;BME280;57491;42.694;23.314;2022-12-07T01:41:24;95085.22;;;8.80;67.52
70127;BME280;57491;42.694;23.314;2022-12-07T01:44:19;95096.69;;;8.86;67.82
70127;BME280;57491;42.694;23.314;2022-12-07T01:46:47;95086.69;;;8.75;66.40
70127;BME280;57491;42.694;23.314;2022-12-07T01:49:20;95084.13;;;8.67;67.42
70127;BME280;57491;42.694;23.314;2022-12-07T01:51:51;95099.31;;;8.70;66.32
70127;BME280;57491;42.694;23.314;2022-12-07T01:54:20;95086.06;;;8.65;67.55
70127;BME280;57491;42.694;23.314;2022-12-07T01:56:50;95093.19;;;8.63;67.18
70127;BME280;57491;42.694;23.314;2022-12-07T01:59:20;95078.16;;;8.58;67.26
70127;BME280;57491;42.694;23.314;2022-12-07T02:01:48;95071.72;;;8.46;67.78
70127;BME280;57491;42.694;23.314;2022-12-07T02:04:15;95067.84;;;8.42;68.58
70127;BME280;57491;42.694;23.314;2022-12-07T02:06:43;95076.19;;;8.60;69.04
70127;BME280;57491;42.694;23.314;2022-12-07T02:09:12;95066.97;;;8.58;68.19
70127;BME280;57491;42.694;23.314;2022-12-07T02:11:40;95076.03;;;8.62;67.65
70127;BME280;57491;42.694;23.314;2022-12-07T02:14:08;95062.66;;;8.42;67.66
70127;BME280;57491;42.694;23.314;2022-12-07T02:16:41;95080.13;;;8.48;68.75
70127;BME280;57491;42.694;23.314;2022-12-07T02:19:31;95085.47;;;8.38;69.58
70127;BME280;57491;42.694;23.314;2022-12-07T02:22:12;95074.50;;;8.36;68.69
70127;BME280;57491;42.694;23.314;2022-12-07T02:24:49;95084.00;;;8.44;68.47
70127;BME280;57491;42.694;23.314;2022-12-07T02:27:40;95071.56;;;8.39;69.54
70127;BME280;57491;42.694;23.314;2022-12-07T02:30:14;95070.72;;;8.47;68.92
70127;BME280;57491;42.694;23.314;2022-12-07T02:32:46;95061.84;;;8.41;68.53
70127;BME280;57491;42.694;23.314;2022-12-07T02:35:19;95070.25;;;8.43;68.68
70127;BME280;57491;42.694;23.314;2022-12-07T02:37:58;95068.47;;;8.44;68.74
70127;BME280;57491;42.694;23.314;2022-12-07T02:40:31;95072.69;;;8.45;69.40
70127;BME280;57491;42.694;23.314;2022-12-07T02:43:04;95075.13;;;8.46;68.50
70127;BME280;57491;42.694;23.314;2022-12-07T02:45:36;95055.53;;;8.28;69.38
70127;BME280;57491;42.694;23.314;2022-12-07T02:48:07;95062.19;;;8.30;69.41
70127;BME280;57491;42.694;23.314;2022-12-07T02:50:35;95059.25;;;8.33;69.27
70127;BME280;57491;42.694;23.314;2022-12-07T02:53:03;95046.75;;;8.29;69.21
70127;BME280;57491;42.694;23.314;2022-12-07T02:55:35;95054.53;;;8.29;68.97
70127;BME280;57491;42.694;23.314;2022-12-07T02:58:19;95051.16;;;8.28;69.39
70127;BME280;57491;42.694;23.314;2022-12-07T03:01:02;95028.19;;;8.17;70.37
70127;BME280;57491;42.694;23.314;2022-12-07T03:03:35;95048.28;;;8.31;70.64
70127;BME280;57491;42.694;23.314;2022-12-07T03:06:10;95050.84;;;8.31;70.55
70127;BME280;57491;42.694;23.314;2022-12-07T03:08:51;95043.09;;;8.31;70.37
70127;BME280;57491;42.694;23.314;2022-12-07T03:11:25;95043.09;;;8.31;70.88
70127;BME280;57491;42.694;23.314;2022-12-07T03:14:00;95046.66;;;8.30;71.05
70127;BME280;57491;42.694;23.314;2022-12-07T03:16:33;95031.78;;;8.00;69.35
70127;BME280;57491;42.694;23.314;2022-12-07T03:19:03;95030.97;;;8.07;70.70
70127;BME280;57491;42.694;23.314;2022-12-07T03:21:34;95041.13;;;8.17;70.08
70127;BME280;57491;42.694;23.314;2022-12-07T03:24:07;95024.47;;;8.12;69.76
70127;BME280;57491;42.694;23.314;2022-12-07T03:26:38;95024.00;;;8.08;68.90
70127;BME280;57491;42.694;23.314;2022-12-07T03:29:15;95051.66;;;8.16;69.18
70127;BME280;57491;42.694;23.314;2022-12-07T03:31:49;95042.78;;;7.94;68.35
70127;BME280;57491;42.694;23.314;2022-12-07T03:34:21;95051.19;;;8.04;70.18
70127;BME280;57491;42.694;23.314;2022-12-07T03:36:53;95055.38;;;8.13;71.54
70127;BME280;57491;42.694;23.314;2022-12-07T03:39:25;95035.81;;;8.19;70.24
70127;BME280;57491;42.694;23.314;2022-12-07T03:41:54;95038.22;;;8.20;69.51
70127;BME280;57491;42.694;23.314;2022-12-07T03:44:23;95049.22;;;8.30;69.94
70127;BME280;57491;42.694;23.314;2022-12-07T03:46:56;95039.69;;;8.31;70.52
70127;BME280;57491;42.694;23.314;2022-12-07T03:49:29;95042.09;;;8.40;71.09
70127;BME280;57491;42.694;23.314;2022-12-07T03:52:03;95041.44;;;8.38;69.63
70127;BME280;57491;42.694;23.314;2022-12-07T03:54:40;95046.00;;;8.36;69.24
70127;BME280;57491;42.694;23.314;2022-12-07T03:57:09;95046.00;;;8.36;69.93
70127;BME280;57491;42.694;23.314;2022-12-07T03:59:39;95038.53;;;8.33;68.81
70127;BME280;57491;42.694;23.314;2022-12-07T04:02:11;95028.00;;;8.35;70.42
70127;BME280;57491;42.694;23.314;2022-12-07T04:04:39;95026.88;;;8.29;69.59
70127;BME280;57491;42.694;23.314;2022-12-07T04:07:06;95024.31;;;8.29;69.21
70127;BME280;57491;42.694;23.314;2022-12-07T04:09:33;95021.06;;;8.27;70.84
70127;BME280;57491;42.694;23.314;2022-12-07T04:12:00;95036.91;;;8.40;70.13
70127;BME280;57491;42.694;23.314;2022-12-07T04:14:28;95015.56;;;8.30;69.32
70127;BME280;57491;42.694;23.314;2022-12-07T04:16:56;95029.47;;;8.37;69.95
70127;BME280;57491;42.694;23.314;2022-12-07T04:19:27;95028.97;;;8.42;70.23
70127;BME280;57491;42.694;23.314;2022-12-07T04:21:55;95027.84;;;8.36;69.31
70127;BME280;57491;42.694;23.314;2022-12-07T04:24:22;95023.81;;;8.34;68.32
70127;BME280;57491;42.694;23.314;2022-12-07T04:26:50;95001.31;;;8.18;68.03
70127;BME280;57491;42.694;23.314;2022-12-07T04:29:17;95035.28;;;8.39;68.93
70127;BME280;57491;42.694;23.314;2022-12-07T04:31:44;95029.78;;;8.34;68.65
70127;BME280;57491;42.694;23.314;2022-12-07T04:34:12;95044.03;;;8.38;69.78
70127;BME280;57491;42.694;23.314;2022-12-07T04:36:42;95037.41;;;8.36;69.52
70127;BME280;57491;42.694;23.314;2022-12-07T04:39:18;95033.34;;;8.33;70.15
70127;BME280;57491;42.694;23.314;2022-12-07T04:41:46;95037.88;;;8.39;69.65
70127;BME280;57491;42.694;23.314;2022-12-07T04:44:14;95039.19;;;8.35;70.67
70127;BME280;57491;42.694;23.314;2022-12-07T04:46:41;95033.69;;;8.22;69.94
70127;BME280;57491;42.694;23.314;2022-12-07T04:49:12;95042.28;;;8.23;70.80
70127;BME280;57491;42.694;23.314;2022-12-07T04:51:41;95051.16;;;8.28;70.66
70127;BME280;57491;42.694;23.314;2022-12-07T04:54:08;95046.31;;;8.17;69.89
70127;BME280;57491;42.694;23.314;2022-12-07T04:56:35;95040.66;;;8.14;70.71
70127;BME280;57491;42.694;23.314;2022-12-07T04:59:03;95049.91;;;8.00;70.59
70127;BME280;57491;42.694;23.314;2022-12-07T05:01:31;95048.44;;;7.97;70.66
70127;BME280;57491;42.694;23.314;2022-12-07T05:03:58;95048.78;;;7.94;71.20
70127;BME280;57491;42.694;23.314;2022-12-07T05:06:26;95043.28;;;7.89;70.63
70127;BME280;57491;42.694;23.314;2022-12-07T05:08:54;95052.31;;;8.01;71.08
70127;BME280;57491;42.694;23.314;2022-12-07T05:11:22;95055.22;;;8.06;71.59
70127;BME280;57491;42.694;23.314;2022-12-07T05:14:10;95045.38;;;8.10;70.46
70127;BME280;57491;42.694;23.314;2022-12-07T05:16:38;95043.56;;;8.02;70.62
70127;BME280;57491;42.694;23.314;2022-12-07T05:19:07;95047.31;;;8.08;70.98
70127;BME280;57491;42.694;23.314;2022-12-07T05:21:35;95047.94;;;8.02;71.68
70127;BME280;57491;42.694;23.314;2022-12-07T05:24:05;95042.78;;;8.02;70.46
70127;BME280;57491;42.694;23.314;2022-12-07T05:26:33;95053.78;;;8.04;69.80
70127;BME280;57491;42.694;23.314;2022-12-07T05:29:00;95045.53;;;8.00;69.86
70127;BME280;57491;42.694;23.314;2022-12-07T05:31:27;95057.81;;;8.06;70.13
70127;BME280;57491;42.694;23.314;2022-12-07T05:33:54;95052.50;;;8.00;68.91
70127;BME280;57491;42.694;23.314;2022-12-07T05:36:22;95046.03;;;7.88;70.07
70127;BME280;57491;42.694;23.314;2022-12-07T05:38:49;95045.03;;;7.89;70.32
70127;BME280;57491;42.694;23.314;2022-12-07T05:41:18;95054.59;;;7.88;71.88
70127;BME280;57491;42.694;23.314;2022-12-07T05:44:03;95018.84;;;7.76;71.29
70127;BME280;57491;42.694;23.314;2022-12-07T05:46:31;95038.56;;;7.93;70.43
70127;BME280;57491;42.694;23.314;2022-12-07T05:48:58;95034.03;;;8.03;71.89
70127;BME280;57491;42.694;23.314;2022-12-07T05:51:25;95038.72;;;8.07;72.03
70127;BME280;57491;42.694;23.314;2022-12-07T05:53:52;95025.63;;;8.01;72.70
70127;BME280;57491;42.694;23.314;2022-12-07T05:56:21;95022.06;;;8.02;72.77
70127;BME280;57491;42.694;23.314;2022-12-07T05:58:48;95035.00;;;8.10;71.88
70127;BME280;57491;42.694;23.314;2022-12-07T06:01:32;95033.69;;;8.06;71.62
70127;BME280;57491;42.694;23.314;2022-12-07T06:03:59;95033.88;;;8.13;71.84
70127;BME280;57491;42.694;23.314;2022-12-07T06:06:27;95035.16;;;8.17;71.39
70127;BME280;57491;42.694;23.314;2022-12-07T06:08:54;95037.59;;;8.18;71.63
70127;BME280;57491;42.694;23.314;2022-12-07T06:11:22;95028.53;;;8.14;71.07
70127;BME280;57491;42.694;23.314;2022-12-07T06:14:07;95034.53;;;8.15;70.90
70127;BME280;57491;42.694;23.314;2022-12-07T06:16:34;95045.16;;;8.20;70.87
70127;BME280;57491;42.694;23.314;2022-12-07T06:19:01;95045.31;;;8.26;71.02
70127;BME280;57491;42.694;23.314;2022-12-07T06:21:29;95048.91;;;8.33;71.14
70127;BME280;57491;42.694;23.314;2022-12-07T06:23:56;95037.56;;;8.34;70.56
70127;BME280;57491;42.694;23.314;2022-12-07T06:26:24;95041.28;;;8.40;68.93
70127;BME280;57491;42.694;23.314;2022-12-07T06:28:51;95041.59;;;8.45;68.93
70127;BME280;57491;42.694;23.314;2022-12-07T06:31:19;95040.44;;;8.47;69.27
70127;BME280;57491;42.694;23.314;2022-12-07T06:33:46;95045.91;;;8.61;69.77
70127;BME280;57491;42.694;23.314;2022-12-07T06:36:13;95031.03;;;8.55;70.07
70127;BME280;57491;42.694;23.314;2022-12-07T06:38:40;95055.09;;;8.71;68.58
70127;BME280;57491;42.694;23.314;2022-12-07T06:41:07;95044.59;;;8.73;68.44
70127;BME280;57491;42.694;23.314;2022-12-07T06:43:36;95060.56;;;8.84;67.35
70127;BME280;57491;42.694;23.314;2022-12-07T06:46:04;95063.97;;;8.85;67.52
70127;BME280;57491;42.694;23.314;2022-12-07T06:48:31;95056.34;;;8.83;67.79
70127;BME280;57491;42.694;23.314;2022-12-07T06:50:58;95062.31;;;8.92;66.93
70127;BME280;57491;42.694;23.314;2022-12-07T06:53:25;95059.91;;;8.90;68.04
70127;BME280;57491;42.694;23.314;2022-12-07T06:55:52;95036.88;;;8.87;67.25
70127;BME280;57491;42.694;23.314;2022-12-07T06:58:20;95065.19;;;8.97;68.30
70127;BME280;57491;42.694;23.314;2022-12-07T07:00:49;95064.69;;;9.02;67.29
70127;BME280;57491;42.694;23.314;2022-12-07T07:03:16;95062.28;;;9.00;67.13
70127;BME280;57491;42.694;23.314;2022-12-07T07:05:43;95064.06;;;9.00;67.47
70127;BME280;57491;42.694;23.314;2022-12-07T07:08:11;95052.38;;;9.04;66.34
70127;BME280;57491;42.694;23.314;2022-12-07T07:10:39;95059.47;;;9.10;65.26
70127;BME280;57491;42.694;23.314;2022-12-07T07:13:06;95065.47;;;9.10;65.52
70127;BME280;57491;42.694;23.314;2022-12-07T07:15:34;95058.69;;;9.09;65.26
70127;BME280;57491;42.694;23.314;2022-12-07T07:18:03;95060.31;;;9.02;65.27
70127;BME280;57491;42.694;23.314;2022-12-07T07:20:30;95058.38;;;8.96;65.56
70127;BME280;57491;42.694;23.314;2022-12-07T07:22:57;95058.38;;;8.96;66.01
70127;BME280;57491;42.694;23.314;2022-12-07T07:25:24;95044.53;;;8.81;65.83
70127;BME280;57491;42.694;23.314;2022-12-07T07:27:51;95061.38;;;8.85;66.39
70127;BME280;57491;42.694;23.314;2022-12-07T07:30:19;95063.72;;;8.64;66.72
70127;BME280;57491;42.694;23.314;2022-12-07T07:32:46;95068.75;;;8.57;66.75
70127;BME280;57491;42.694;23.314;2022-12-07T07:35:14;95048.38;;;8.54;66.97
70127;BME280;57491;42.694;23.314;2022-12-07T07:37:42;95076.66;;;8.72;67.61
70127;BME280;57491;42.694;23.314;2022-12-07T07:40:10;95066.41;;;8.86;67.23
70127;BME280;57491;42.694;23.314;2022-12-07T07:42:37;95062.66;;;8.89;66.70
70127;BME280;57491;42.694;23.314;2022-12-07T07:45:04;95064.50;;;9.11;66.11
70127;BME280;57491;42.694;23.314;2022-12-07T07:47:31;95045.00;;;9.15;65.44
70127;BME280;57491;42.694;23.314;2022-12-07T07:49:59;95070.47;;;9.43;65.44
70127;BME280;57491;42.694;23.314;2022-12-07T07:52:28;95049.03;;;9.49;64.71
70127;BME280;57491;42.694;23.314;2022-12-07T07:54:55;95065.97;;;9.59;63.82
70127;BME280;57491;42.694;23.314;2022-12-07T07:57:22;95048.75;;;9.44;63.50
70127;BME280;57491;42.694;23.314;2022-12-07T07:59:49;95067.88;;;9.43;64.64
70127;BME280;57491;42.694;23.314;2022-12-07T08:02:19;95057.38;;;9.36;64.50
70127;BME280;57491;42.694;23.314;2022-12-07T08:04:46;95055.00;;;9.26;64.09
70127;BME280;57491;42.694;23.314;2022-12-07T08:07:14;95063.00;;;9.17;64.58
70127;BME280;57491;42.694;23.314;2022-12-07T08:09:43;95068.53;;;9.14;65.59
70127;BME280;57491;42.694;23.314;2022-12-07T08:12:10;95069.97;;;9.16;65.83
70127;BME280;57491;42.694;23.314;2022-12-07T08:14:37;95063.78;;;9.25;66.10
70127;BME280;57491;42.694;23.314;2022-12-07T08:17:04;95047.03;;;9.28;64.36
70127;BME280;57491;42.694;23.314;2022-12-07T08:19:31;95062.16;;;9.47;66.22
70127;BME280;57491;42.694;23.314;2022-12-07T08:21:58;95052.25;;;9.51;65.48
70127;BME280;57491;42.694;23.314;2022-12-07T08:24:25;95053.81;;;9.60;63.83
70127;BME280;57491;42.694;23.314;2022-12-07T08:26:54;95032.13;;;9.53;63.70
70127;BME280;57491;42.694;23.314;2022-12-07T08:29:22;95002.19;;;9.42;64.30
70127;BME280;57491;42.694;23.314;2022-12-07T08:31:49;95032.19;;;9.67;64.07
70127;BME280;57491;42.694;23.314;2022-12-07T08:34:17;94978.97;;;9.49;63.79
70127;BME280;57491;42.694;23.314;2022-12-07T08:36:45;95005.56;;;9.88;62.51
70127;BME280;57491;42.694;23.314;2022-12-07T08:39:13;94999.84;;;10.30;61.94
70127;BME280;57491;42.694;23.314;2022-12-07T08:41:40;95030.19;;;11.03;61.33
70127;BME280;57491;42.694;23.314;2022-12-07T08:44:09;95001.28;;;11.55;58.67
70127;BME280;57491;42.694;23.314;2022-12-07T08:46:37;94987.53;;;11.61;57.01
70127;BME280;57491;42.694;23.314;2022-12-07T08:49:09;95045.69;;;12.11;56.37
70127;BME280;57491;42.694;23.314;2022-12-07T08:51:38;95031.72;;;12.25;56.26
70127;BME280;57491;42.694;23.314;2022-12-07T08:54:09;95041.00;;;13.03;54.46
70127;BME280;57491;42.694;23.314;2022-12-07T08:56:38;95032.59;;;13.68;52.59
70127;BME280;57491;42.694;23.314;2022-12-07T08:59:10;95040.84;;;13.71;51.08
70127;BME280;57491;42.694;23.314;2022-12-07T09:01:38;94999.56;;;13.34;50.54
70127;BME280;57491;42.694;23.314;2022-12-07T09:04:05;94989.72;;;13.23;50.68
70127;BME280;57491;42.694;23.314;2022-12-07T09:06:33;95001.34;;;13.20;51.31
70127;BME280;57491;42.694;23.314;2022-12-07T09:09:01;95004.16;;;13.19;51.88
70127;BME280;57491;42.694;23.314;2022-12-07T09:11:29;94997.84;;;14.00;50.45
70127;BME280;57491;42.694;23.314;2022-12-07T09:13:57;95011.78;;;14.91;47.36
70127;BME280;57491;42.694;23.314;2022-12-07T09:16:27;94965.66;;;14.39;46.90
70127;BME280;57491;42.694;23.314;2022-12-07T09:18:54;95023.97;;;14.33;47.69
70127;BME280;57491;42.694;23.314;2022-12-07T09:21:22;94969.31;;;13.72;47.79
70127;BME280;57491;42.694;23.314;2022-12-07T09:23:49;95007.88;;;13.83;48.77
70127;BME280;57491;42.694;23.314;2022-12-07T09:26:17;95022.97;;;13.81;49.17
70127;BME280;57491;42.694;23.314;2022-12-07T09:28:44;95018.91;;;13.53;50.00
70127;BME280;57491;42.694;23.314;2022-12-07T09:31:12;95014.75;;;13.11;50.24
70127;BME280;57491;42.694;23.314;2022-12-07T09:33:41;95015.78;;;12.75;51.45
70127;BME280;57491;42.694;23.314;2022-12-07T09:36:10;95004.22;;;12.50;52.00
70127;BME280;57491;42.694;23.314;2022-12-07T09:38:37;94974.13;;;12.13;52.59
70127;BME280;57491;42.694;23.314;2022-12-07T09:41:05;94997.09;;;12.31;53.59
70127;BME280;57491;42.694;23.314;2022-12-07T09:43:34;94923.84;;;11.63;53.63
70127;BME280;57491;42.694;23.314;2022-12-07T09:46:03;94928.19;;;11.56;53.83
70127;BME280;57491;42.694;23.314;2022-12-07T09:48:32;94949.72;;;11.72;54.24
70127;BME280;57491;42.694;23.314;2022-12-07T09:51:13;94963.25;;;11.75;54.88
70127;BME280;57491;42.694;23.314;2022-12-07T09:53:42;94989.28;;;11.75;55.46
70127;BME280;57491;42.694;23.314;2022-12-07T09:56:11;94984.59;;;11.71;55.47
70127;BME280;57491;42.694;23.314;2022-12-07T09:58:40;94932.09;;;11.46;55.87
70127;BME280;57491;42.694;23.314;2022-12-07T10:01:12;94949.31;;;11.68;56.11
70127;BME280;57491;42.694;23.314;2022-12-07T10:03:42;94944.41;;;11.80;55.91
70127;BME280;57491;42.694;23.314;2022-12-07T10:06:13;94948.38;;;11.97;55.47
70127;BME280;57491;42.694;23.314;2022-12-07T10:08:40;94947.47;;;12.11;53.98
70127;BME280;57491;42.694;23.314;2022-12-07T10:11:10;94950.78;;;12.33;53.34
70127;BME280;57491;42.694;23.314;2022-12-07T10:13:39;94930.16;;;12.38;53.31
70127;BME280;57491;42.694;23.314;2022-12-07T10:16:31;94955.19;;;12.73;53.40
70127;BME280;57491;42.694;23.314;2022-12-07T10:19:18;94903.78;;;12.67;53.17
70127;BME280;57491;42.694;23.314;2022-12-07T10:22:02;94945.34;;;13.23;51.82
70127;BME280;57491;42.694;23.314;2022-12-07T10:24:30;94948.19;;;13.41;51.49
70127;BME280;57491;42.694;23.314;2022-12-07T10:26:57;94929.09;;;13.54;51.28
70127;BME280;57491;42.694;23.314;2022-12-07T10:29:29;94906.97;;;13.56;50.26
70127;BME280;57491;42.694;23.314;2022-12-07T10:31:59;94924.47;;;13.75;49.94
70127;BME280;57491;42.694;23.314;2022-12-07T10:34:29;94867.00;;;13.43;49.83
70127;BME280;57491;42.694;23.314;2022-12-07T10:37:15;94862.78;;;13.35;49.93
70127;BME280;57491;42.694;23.314;2022-12-07T10:39:45;94890.91;;;13.33;50.39
70127;BME280;57491;42.694;23.314;2022-12-07T10:42:17;94893.50;;;13.13;50.95
70127;BME280;57491;42.694;23.314;2022-12-07T10:44:45;94865.94;;;12.97;50.59
70127;BME280;57491;42.694;23.314;2022-12-07T10:47:27;94919.44;;;13.28;51.35
70127;BME280;57491;42.694;23.314;2022-12-07T10:53:24;94850.63;;;12.68;53.04
70127;BME280;57491;42.694;23.314;2022-12-07T10:56:09;94854.78;;;12.49;52.13
70127;BME280;57491;42.694;23.314;2022-12-07T10:58:52;94913.47;;;12.80;52.96
70127;BME280;57491;42.694;23.314;2022-12-07T11:01:30;94828.69;;;12.43;52.56
70127;BME280;57491;42.694;23.314;2022-12-07T11:04:14;94868.31;;;12.73;52.28
70127;BME280;57491;42.694;23.314;2022-12-07T11:06:49;94840.78;;;12.64;52.45
70127;BME280;57491;42.694;23.314;2022-12-07T11:09:47;94878.03;;;13.12;52.20
70127;BME280;57491;42.694;23.314;2022-12-07T11:12:26;94881.44;;;13.78;49.93
70127;BME280;57491;42.694;23.314;2022-12-07T11:15:02;94884.47;;;15.03;46.88
70127;BME280;57491;42.694;23.314;2022-12-07T11:17:36;94881.66;;;16.04;43.84
70127;BME280;57491;42.694;23.314;2022-12-07T11:20:19;94877.84;;;16.25;43.56
70127;BME280;57491;42.694;23.314;2022-12-07T11:22:58;94862.75;;;17.05;41.63
70127;BME280;57491;42.694;23.314;2022-12-07T11:25:32;94861.84;;;17.11;40.99
70127;BME280;57491;42.694;23.314;2022-12-07T11:28:13;94834.88;;;16.74;41.70
70127;BME280;57491;42.694;23.314;2022-12-07T11:30:54;94781.56;;;16.43;41.00
70127;BME280;57491;42.694;23.314;2022-12-07T11:33:28;94833.94;;;16.68;41.73
70127;BME280;57491;42.694;23.314;2022-12-07T11:36:02;94793.00;;;19.10;36.50
70127;BME280;57491;42.694;23.314;2022-12-07T11:38:37;94816.00;;;19.81;35.08
70127;BME280;57491;42.694;23.314;2022-12-07T11:41:10;94834.63;;;21.17;33.65
70127;BME280;57491;42.694;23.314;2022-12-07T11:44:02;94839.72;;;21.55;31.84
70127;BME280;57491;42.694;23.314;2022-12-07T11:46:43;94849.81;;;22.94;29.96
70127;BME280;57491;42.694;23.314;2022-12-07T11:49:16;94851.53;;;22.63;30.20
70127;BME280;57491;42.694;23.314;2022-12-07T11:51:49;94829.56;;;22.68;30.52
70127;BME280;57491;42.694;23.314;2022-12-07T11:54:21;94800.25;;;24.31;27.59
70127;BME280;57491;42.694;23.314;2022-12-07T11:56:53;94835.06;;;26.87;24.55
70127;BME280;57491;42.694;23.314;2022-12-07T11:59:27;94824.94;;;28.10;22.65
70127;BME280;57491;42.694;23.314;2022-12-07T12:02:00;94826.59;;;28.66;21.77
70127;BME280;57491;42.694;23.314;2022-12-07T12:04:47;94819.09;;;28.81;21.75
70127;BME280;57491;42.694;23.314;2022-12-07T12:07:19;94813.19;;;29.07;21.00
70127;BME280;57491;42.694;23.314;2022-12-07T12:09:51;94810.28;;;28.08;22.09
70127;BME280;57491;42.694;23.314;2022-12-07T12:12:44;94806.06;;;26.04;24.37
70127;BME280;57491;42.694;23.314;2022-12-07T12:15:28;94812.19;;;24.34;26.58
70127;BME280;57491;42.694;23.314;2022-12-07T12:18:22;94810.81;;;22.80;28.84
70127;BME280;57491;42.694;23.314;2022-12-07T12:20:56;94797.06;;;21.47;31.15
70127;BME280;57491;42.694;23.314;2022-12-07T12:23:29;94796.88;;;20.73;32.48
70127;BME280;57491;42.694;23.314;2022-12-07T12:26:02;94782.88;;;20.29;33.08
70127;BME280;57491;42.694;23.314;2022-12-07T12:28:38;94795.44;;;20.00;33.71
70127;BME280;57491;42.694;23.314;2022-12-07T12:31:10;94793.16;;;19.37;34.83
70127;BME280;57491;42.694;23.314;2022-12-07T12:33:43;94786.31;;;18.74;36.56
70127;BME280;57491;42.694;23.314;2022-12-07T12:36:20;94783.56;;;18.69;37.28
70127;BME280;57491;42.694;23.314;2022-12-07T12:38:50;94772.06;;;19.37;36.34
70127;BME280;57491;42.694;23.314;2022-12-07T12:41:53;94770.25;;;21.06;33.34
70127;BME280;57491;42.694;23.314;2022-12-07T12:45:04;94766.66;;;22.43;30.71
70127;BME280;57491;42.694;23.314;2022-12-07T12:47:55;94770.06;;;23.77;28.22
70127;BME280;57491;42.694;23.314;2022-12-07T12:50:25;94762.81;;;25.60;25.78
70127;BME280;57491;42.694;23.314;2022-12-07T12:53:01;94767.78;;;26.67;24.40
70127;BME280;57491;42.694;23.314;2022-12-07T12:56:07;94766.72;;;27.42;23.83
70127;BME280;57491;42.694;23.314;2022-12-07T12:58:45;94771.00;;;29.26;21.72
70127;BME280;57491;42.694;23.314;2022-12-07T13:01:38;94775.00;;;30.04;20.45
70127;BME280;57491;42.694;23.314;2022-12-07T13:04:22;94766.22;;;29.37;20.77
70127;BME280;57491;42.694;23.314;2022-12-07T13:06:51;94774.50;;;29.13;21.09
70127;BME280;57491;42.694;23.314;2022-12-07T13:09:21;94761.72;;;29.10;20.81
70127;BME280;57491;42.694;23.314;2022-12-07T13:11:56;94779.31;;;29.38;20.67
70127;BME280;57491;42.694;23.314;2022-12-07T13:14:55;94780.03;;;28.80;21.27
70127;BME280;57491;42.694;23.314;2022-12-07T13:17:59;94763.66;;;29.32;20.66
70127;BME280;57491;42.694;23.314;2022-12-07T13:20:48;94762.50;;;29.10;20.75
70127;BME280;57491;42.694;23.314;2022-12-07T13:23:33;94766.66;;;29.16;20.99